Time;durP1;ratioP1;P1;durP2;ratioP2;P2;SDS_P1;SDS_P2;PMS_P1;PMS_P2;Temp;Humidity;BMP_temperature;BMP_pressure;BME280_temperature;BME280_humidity;BME280_pressure;Samples;Min_cycle;Max_cycle;Signal;HPM_P1;HPM_P2
2022/05/02 00:00:50;;;;;;;3.83;2.42;;;;;;;;;;5013727;28;20108;-37
2022/05/02 00:03:15;;;;;;;35.10;4.00;;;;;;;;;;5014084;28;20026;-38
2022/05/02 00:05:41;;;;;;;7.05;2.58;;;;;;;;;;5013765;28;20037;-37
2022/05/02 00:08:07;;;;;;;3.67;2.20;;;;;;;;;;5013688;28;20457;-37
2022/05/02 00:10:33;;;;;;;2.65;2.20;;;;;;;;;;5013817;28;20026;-37
2022/05/02 00:12:58;;;;;;;2.38;1.98;;;;;;;;;;5013679;28;20048;-37
2022/05/02 00:15:24;;;;;;;4.75;2.47;;;;;;;;;;5013909;28;20072;-36
2022/05/02 00:18:02;;;;;;;3.05;2.28;;;;;;;;;;5013619;28;20049;-37
2022/05/02 00:20:27;;;;;;;3.72;2.65;;;;;;;;;;5013536;28;20041;-37
2022/05/02 00:22:53;;;;;;;4.93;1.90;;;;;;;;;;5013462;28;20108;-37
2022/05/02 00:25:19;;;;;;;4.57;1.95;;;;;;;;;;5013680;28;20022;-37
2022/05/02 00:27:45;;;;;;;3.08;2.25;;;;;;;;;;5013281;28;20054;-36
2022/05/02 00:30:11;;;;;;;3.47;2.70;;;;;;;;;;5013271;28;20506;-37
2022/05/02 00:32:37;;;;;;;6.53;2.20;;;;;;;;;;5013325;28;20120;-36
2022/05/02 00:35:03;;;;;;;2.45;2.15;;;;;;;;;;5013350;28;20112;-37
2022/05/02 00:37:29;;;;;;;3.13;2.40;;;;;;;;;;5013518;28;20022;-36
2022/05/02 00:39:54;;;;;;;6.60;2.45;;;;;;;;;;5012940;28;20452;-36
2022/05/02 00:42:20;;;;;;;1.40;1.30;;;;;;;;;;5013008;28;20025;-37
2022/05/02 00:44:45;;;;;;;4.80;1.40;;;;;;;;;;5013350;28;20080;-37
2022/05/02 00:47:11;;;;;;;2.67;1.90;;;;;;;;;;5013280;28;20022;-37
2022/05/02 00:49:38;;;;;;;2.92;1.98;;;;;;;;;;5013060;28;20064;-37
2022/05/02 00:52:04;;;;;;;1.58;1.27;;;;;;;;;;5012946;28;20018;-37
2022/05/02 00:54:29;;;;;;;1.77;1.65;;;;;;;;;;5012774;28;20171;-37
2022/05/02 00:56:55;;;;;;;3.00;2.15;;;;;;;;;;5012996;28;20022;-37
2022/05/02 00:59:21;;;;;;;2.55;1.55;;;;;;;;;;5028107;28;20060;-37
2022/05/02 01:01:48;;;;;;;2.03;1.73;;;;;;;;;;5012765;28;20144;-36
2022/05/02 01:04:13;;;;;;;2.47;1.92;;;;;;;;;;5012527;28;20152;-36
2022/05/02 01:09:22;;;;;;;2.53;1.83;;;;;;;;;;5012749;28;20034;-37
2022/05/02 01:11:48;;;;;;;2.50;1.85;;;;;;;;;;5012621;28;20679;-37
2022/05/02 01:14:13;;;;;;;2.00;1.73;;;;;;;;;;5012445;28;20042;-37
2022/05/02 01:16:38;;;;;;;2.17;1.77;;;;;;;;;;5012557;28;20022;-37
2022/05/02 01:19:04;;;;;;;5.55;2.60;;;;;;;;;;5012624;28;20033;-37
2022/05/02 01:21:29;;;;;;;2.22;1.77;;;;;;;;;;5012810;28;20373;-37
2022/05/02 01:23:57;;;;;;;2.03;1.80;;;;;;;;;;5012295;28;20366;-37
2022/05/02 01:26:23;;;;;;;2.13;1.33;;;;;;;;;;5012368;28;20049;-37
2022/05/02 01:28:52;;;;;;;2.25;1.73;;;;;;;;;;5012614;28;20037;-37
2022/05/02 01:31:18;;;;;;;2.00;1.73;;;;;;;;;;5012188;28;20030;-36
2022/05/02 01:33:44;;;;;;;3.20;1.83;;;;;;;;;;5012115;28;20042;-37
2022/05/02 01:36:09;;;;;;;5.25;1.63;;;;;;;;;;5012193;28;20487;-37
2022/05/02 01:38:35;;;;;;;3.55;1.73;;;;;;;;;;5012140;28;20037;-37
2022/05/02 01:41:01;;;;;;;1.83;1.50;;;;;;;;;;5012051;28;20473;-37
2022/05/02 01:43:27;;;;;;;1.70;1.50;;;;;;;;;;5012261;28;20370;-37
2022/05/02 01:45:52;;;;;;;2.03;1.77;;;;;;;;;;5012240;28;20025;-36
2022/05/02 01:48:18;;;;;;;2.30;1.88;;;;;;;;;;5012293;28;20030;-37
2022/05/02 01:50:43;;;;;;;3.72;1.50;;;;;;;;;;5011832;28;20369;-36
2022/05/02 01:53:08;;;;;;;1.63;1.38;;;;;;;;;;5011339;28;20044;-37
2022/05/02 01:55:34;;;;;;;1.77;1.60;;;;;;;;;;5012192;28;20473;-37
2022/05/02 01:57:59;;;;;;;3.80;1.65;;;;;;;;;;5012116;28;20507;-36
2022/05/02 02:00:24;;;;;;;2.10;1.75;;;;;;;;;;5011947;28;20160;-36
2022/05/02 02:02:50;;;;;;;3.08;1.25;;;;;;;;;;5012009;28;20053;-36
2022/05/02 02:07:59;;;;;;;1.77;1.30;;;;;;;;;;5011971;28;20384;-37
2022/05/02 02:10:25;;;;;;;1.70;1.50;;;;;;;;;;5011811;28;20029;-37
2022/05/02 02:12:50;;;;;;;5.63;1.70;;;;;;;;;;5011496;28;20049;-37
2022/05/02 02:15:16;;;;;;;3.53;1.92;;;;;;;;;;5011987;28;20026;-36
2022/05/02 02:17:41;;;;;;;2.03;1.60;;;;;;;;;;5011997;28;20248;-37
2022/05/02 02:20:07;;;;;;;4.65;1.88;;;;;;;;;;5011555;28;20587;-37
2022/05/02 02:22:32;;;;;;;3.65;2.03;;;;;;;;;;5011837;28;20041;-37
2022/05/02 02:24:58;;;;;;;1.73;1.30;;;;;;;;;;5011487;28;20018;-37
2022/05/02 02:27:23;;;;;;;1.77;0.93;;;;;;;;;;5011503;28;20054;-37
2022/05/02 02:29:49;;;;;;;2.08;1.27;;;;;;;;;;5011563;28;20029;-37
2022/05/02 02:32:14;;;;;;;1.92;1.38;;;;;;;;;;5011381;28;20042;-38
2022/05/02 02:34:39;;;;;;;1.83;1.58;;;;;;;;;;5011864;28;20029;-38
2022/05/02 02:37:05;;;;;;;1.80;1.58;;;;;;;;;;5011364;28;20081;-37
2022/05/02 02:39:30;;;;;;;1.65;1.35;;;;;;;;;;5011510;28;20018;-37
2022/05/02 02:41:55;;;;;;;2.97;1.60;;;;;;;;;;5011619;28;20076;-36
2022/05/02 02:44:21;;;;;;;4.60;1.55;;;;;;;;;;5011383;28;20021;-36
2022/05/02 02:46:46;;;;;;;1.42;1.30;;;;;;;;;;5011498;28;20030;-36
2022/05/02 02:49:11;;;;;;;2.03;1.50;;;;;;;;;;5011280;28;20519;-37
2022/05/02 02:51:37;;;;;;;1.75;1.15;;;;;;;;;;5011601;28;20041;-36
2022/05/02 02:54:02;;;;;;;3.17;1.30;;;;;;;;;;5011168;28;20091;-37
2022/05/02 02:56:27;;;;;;;1.30;1.20;;;;;;;;;;5011246;28;20034;-37
2022/05/02 02:58:53;;;;;;;2.28;1.02;;;;;;;;;;5011513;28;20075;-36
2022/05/02 03:01:18;;;;;;;1.83;1.23;;;;;;;;;;5011333;28;20030;-37
2022/05/02 03:03:43;;;;;;;3.65;1.10;;;;;;;;;;5012109;28;20026;-36
2022/05/02 03:06:09;;;;;;;2.75;1.02;;;;;;;;;;5014954;28;20469;-37
2022/05/02 03:08:44;;;;;;;1.48;0.90;;;;;;;;;;5014984;28;20029;-36
2022/05/02 03:11:10;;;;;;;1.60;0.90;;;;;;;;;;5015068;28;20033;-36
2022/05/02 03:13:35;;;;;;;3.25;0.77;;;;;;;;;;5014735;28;20459;-36
2022/05/02 03:16:01;;;;;;;1.00;0.90;;;;;;;;;;5014940;28;20034;-37
2022/05/02 03:18:26;;;;;;;1.38;0.95;;;;;;;;;;5014738;28;20025;-37
2022/05/02 03:20:52;;;;;;;5.78;1.50;;;;;;;;;;5014600;28;20057;-36
2022/05/02 03:23:17;;;;;;;1.02;0.88;;;;;;;;;;5014865;28;20014;-36
2022/05/02 03:25:43;;;;;;;3.10;0.88;;;;;;;;;;5014861;28;20030;-36
2022/05/02 03:28:08;;;;;;;1.10;1.00;;;;;;;;;;5014366;28;20493;-37
2022/05/02 03:30:34;;;;;;;1.08;0.95;;;;;;;;;;5014519;28;20036;-37
2022/05/02 03:32:59;;;;;;;1.80;0.90;;;;;;;;;;5014276;28;20041;-36
2022/05/02 03:35:25;;;;;;;3.17;1.05;;;;;;;;;;5013172;28;20401;-36
2022/05/02 03:37:51;;;;;;;1.33;0.80;;;;;;;;;;5014442;28;20459;-36
2022/05/02 03:40:16;;;;;;;1.20;1.15;;;;;;;;;;5014211;28;20116;-36
2022/05/02 03:42:42;;;;;;;1.17;0.85;;;;;;;;;;5014575;28;20018;-37
2022/05/02 03:45:07;;;;;;;1.60;0.80;;;;;;;;;;5012935;28;20092;-37
2022/05/02 03:47:33;;;;;;;2.10;0.75;;;;;;;;;;5014115;28;20026;-37
2022/05/02 03:49:58;;;;;;;3.67;0.90;;;;;;;;;;5012891;28;20026;-36
2022/05/02 03:52:23;;;;;;;1.02;0.93;;;;;;;;;;5013144;28;20097;-36
2022/05/02 03:54:49;;;;;;;0.70;0.63;;;;;;;;;;5014290;28;20049;-36
2022/05/02 03:57:15;;;;;;;1.25;0.93;;;;;;;;;;5013951;28;20053;-36
2022/05/02 03:59:41;;;;;;;1.02;0.77;;;;;;;;;;5014030;28;20118;-36
2022/05/02 04:02:06;;;;;;;1.00;0.90;;;;;;;;;;5013818;28;20109;-36
2022/05/02 04:04:31;;;;;;;1.83;0.70;;;;;;;;;;5013913;28;20060;-37
2022/05/02 04:06:57;;;;;;;2.25;0.93;;;;;;;;;;5013714;28;20058;-36
2022/05/02 04:09:23;;;;;;;0.95;0.93;;;;;;;;;;5014034;28;20030;-36
2022/05/02 04:11:48;;;;;;;1.15;0.90;;;;;;;;;;5013746;28;20131;-36
2022/05/02 04:14:14;;;;;;;1.35;0.77;;;;;;;;;;5013314;28;20046;-37
2022/05/02 04:16:40;;;;;;;0.85;0.63;;;;;;;;;;5012373;28;20112;-36
2022/05/02 04:19:06;;;;;;;1.15;0.70;;;;;;;;;;5013483;28;20034;-37
2022/05/02 04:21:31;;;;;;;2.70;1.17;;;;;;;;;;5012596;28;20064;-36
2022/05/02 04:23:57;;;;;;;0.85;0.63;;;;;;;;;;5013366;28;20444;-37
2022/05/02 04:26:22;;;;;;;0.93;0.80;;;;;;;;;;5013310;28;20080;-36
2022/05/02 04:28:47;;;;;;;1.00;0.73;;;;;;;;;;5013463;28;20049;-37
2022/05/02 04:31:13;;;;;;;1.35;1.00;;;;;;;;;;5013243;28;20030;-37
2022/05/02 04:33:39;;;;;;;1.10;0.65;;;;;;;;;;5013291;28;20042;-36
2022/05/02 04:36:05;;;;;;;1.60;1.00;;;;;;;;;;5013199;28;20053;-36
2022/05/02 04:38:30;;;;;;;1.25;0.88;;;;;;;;;;5013288;28;20483;-36
2022/05/02 04:40:59;;;;;;;3.92;1.10;;;;;;;;;;5013159;28;20018;-39
2022/05/02 04:43:25;;;;;;;1.25;1.15;;;;;;;;;;5013275;28;20038;-36
2022/05/02 04:45:51;;;;;;;2.55;1.00;;;;;;;;;;5013425;28;20026;-36
2022/05/02 04:48:16;;;;;;;0.95;0.70;;;;;;;;;;5011797;28;20036;-36
2022/05/02 04:50:42;;;;;;;5.95;1.20;;;;;;;;;;5012989;28;20131;-37
2022/05/02 04:53:07;;;;;;;7.53;1.20;;;;;;;;;;5013052;28;20049;-36
2022/05/02 04:55:33;;;;;;;3.58;1.25;;;;;;;;;;5013190;28;20064;-36
2022/05/02 04:58:01;;;;;;;9.80;1.17;;;;;;;;;;5012836;28;20030;-37
2022/05/02 05:00:27;;;;;;;7.25;1.50;;;;;;;;;;5012907;28;20018;-36
2022/05/02 05:02:53;;;;;;;4.50;1.10;;;;;;;;;;5013011;28;20060;-37
2022/05/02 05:05:18;;;;;;;1.83;1.13;;;;;;;;;;5012646;28;20377;-37
2022/05/02 05:07:44;;;;;;;7.60;0.93;;;;;;;;;;5012741;28;20030;-36
2022/05/02 05:10:10;;;;;;;6.75;1.25;;;;;;;;;;5012592;28;20021;-36
2022/05/02 05:12:39;;;;;;;8.77;1.65;;;;;;;;;;5012520;28;20113;-37
2022/05/02 05:18:22;;;;;;;8.80;1.30;;;;;;;;;;5012490;28;20104;-36
2022/05/02 05:20:54;;;;;;;4.95;1.60;;;;;;;;;;5012529;28;20038;-36
2022/05/02 05:23:20;;;;;;;2.95;0.77;;;;;;;;;;5011177;28;20026;-36
2022/05/02 05:26:07;;;;;;;3.30;1.00;;;;;;;;;;5012028;28;20527;-36
2022/05/02 05:28:33;;;;;;;1.55;0.93;;;;;;;;;;5012386;28;20422;-36
2022/05/02 05:31:24;;;;;;;3.58;1.20;;;;;;;;;;5012190;28;20040;-36
2022/05/02 05:33:51;;;;;;;1.85;1.10;;;;;;;;;;5009005;28;20053;-36
2022/05/02 05:36:20;;;;;;;2.15;1.00;;;;;;;;;;5012379;28;20034;-37
2022/05/02 05:38:49;;;;;;;1.83;1.30;;;;;;;;;;5012475;28;20037;-36
2022/05/02 05:41:38;;;;;;;4.53;0.90;;;;;;;;;;5012288;28;20513;-37
2022/05/02 05:44:22;;;;;;;1.10;0.90;;;;;;;;;;5011816;28;20437;-37
2022/05/02 05:46:54;;;;;;;2.63;1.38;;;;;;;;;;5012367;28;20534;-36
2022/05/02 05:49:36;;;;;;;6.10;2.03;;;;;;;;;;5027216;28;20096;-36
2022/05/02 05:52:15;;;;;;;1.10;1.00;;;;;;;;;;5011947;28;20504;-36
2022/05/02 05:54:59;;;;;;;1.45;1.10;;;;;;;;;;5011784;28;20520;-37
2022/05/02 05:57:49;;;;;;;2.25;0.93;;;;;;;;;;5011881;28;20116;-36
2022/05/02 06:00:15;;;;;;;0.90;0.73;;;;;;;;;;5011857;28;20037;-36
2022/05/02 06:02:50;;;;;;;1.00;0.93;;;;;;;;;;5011716;28;20083;-37
2022/05/02 06:05:17;;;;;;;3.47;1.75;;;;;;;;;;5011827;28;20038;-37
2022/05/02 06:07:44;;;;;;;1.42;0.85;;;;;;;;;;5011837;28;20026;-36
2022/05/02 06:10:10;;;;;;;1.02;0.90;;;;;;;;;;5011596;28;20030;-36
2022/05/02 06:12:37;;;;;;;1.23;0.90;;;;;;;;;;5011545;28;20033;-36
2022/05/02 06:20:34;;;;;;;1.02;0.90;;;;;;;;;;5011717;28;20544;-37
2022/05/02 06:23:01;;;;;;;0.77;0.77;;;;;;;;;;5011445;28;20215;-36
2022/05/02 06:25:28;;;;;;;2.30;0.68;;;;;;;;;;5011610;28;20508;-36
2022/05/02 06:27:55;;;;;;;1.27;0.90;;;;;;;;;;5011407;28;20554;-37
2022/05/02 06:30:22;;;;;;;1.08;0.98;;;;;;;;;;5011488;28;20042;-36
2022/05/02 06:32:49;;;;;;;0.82;0.77;;;;;;;;;;5011471;28;20029;-37
2022/05/02 06:35:15;;;;;;;2.00;1.48;;;;;;;;;;5011695;28;20041;-37
2022/05/02 06:37:48;;;;;;;1.23;1.02;;;;;;;;;;5012457;28;20091;-36
2022/05/02 06:40:14;;;;;;;1.17;1.02;;;;;;;;;;5015358;28;20036;-37
2022/05/02 06:42:59;;;;;;;5.60;1.40;;;;;;;;;;5015307;28;20465;-36
2022/05/02 06:45:36;;;;;;;1.13;0.88;;;;;;;;;;5015294;28;20071;-36
2022/05/02 06:48:11;;;;;;;1.65;1.27;;;;;;;;;;5015292;28;20029;-37
2022/05/02 06:50:38;;;;;;;1.10;1.00;;;;;;;;;;5015573;28;20030;-37
2022/05/02 06:53:29;;;;;;;1.17;1.05;;;;;;;;;;5015049;28;20030;-36
2022/05/02 06:56:07;;;;;;;1.30;1.13;;;;;;;;;;5014004;28;20033;-37
2022/05/02 06:58:53;;;;;;;2.30;1.20;;;;;;;;;;5015379;28;20034;-37
2022/05/02 07:01:19;;;;;;;1.13;1.02;;;;;;;;;;5013900;28;20061;-37
2022/05/02 07:03:45;;;;;;;1.73;1.02;;;;;;;;;;5015292;28;20420;-36
2022/05/02 07:06:29;;;;;;;3.05;1.27;;;;;;;;;;5014929;28;20034;-37
2022/05/02 07:08:57;;;;;;;1.42;1.10;;;;;;;;;;5014941;28;20026;-36
2022/05/02 07:11:27;;;;;;;1.30;1.10;;;;;;;;;;5014941;28;20021;-36
2022/05/02 07:14:03;;;;;;;1.58;1.02;;;;;;;;;;5013716;28;20444;-36
2022/05/02 07:16:30;;;;;;;1.35;1.25;;;;;;;;;;5014842;28;20037;-37
2022/05/02 07:19:10;;;;;;;1.65;1.30;;;;;;;;;;5014795;28;20045;-36
2022/05/02 07:21:51;;;;;;;1.40;1.30;;;;;;;;;;5014664;28;20044;-37
2022/05/02 07:24:35;;;;;;;2.47;1.42;;;;;;;;;;5014798;28;20034;-37
2022/05/02 07:27:04;;;;;;;1.88;1.48;;;;;;;;;;5014336;28;20054;-37
2022/05/02 07:29:31;;;;;;;1.45;1.17;;;;;;;;;;5014658;28;20034;-37
2022/05/02 07:31:58;;;;;;;2.95;2.03;;;;;;;;;;5014582;28;20030;-36
2022/05/02 07:34:24;;;;;;;2.05;1.38;;;;;;;;;;5014503;28;20057;-37
2022/05/02 07:36:51;;;;;;;2.25;1.70;;;;;;;;;;5014443;28;20038;-36
2022/05/02 07:39:19;;;;;;;1.60;1.42;;;;;;;;;;5014358;28;20114;-36
2022/05/02 07:41:46;;;;;;;1.88;1.27;;;;;;;;;;5014239;28;20030;-37
2022/05/02 07:44:13;;;;;;;2.10;1.67;;;;;;;;;;5014131;28;20064;-36
2022/05/02 07:46:41;;;;;;;2.05;1.70;;;;;;;;;;5014342;28;20117;-37
2022/05/02 07:49:09;;;;;;;1.88;1.30;;;;;;;;;;5013221;28;20030;-37
2022/05/02 07:51:50;;;;;;;1.70;1.45;;;;;;;;;;5014201;28;20025;-36
2022/05/02 07:54:18;;;;;;;1.77;1.63;;;;;;;;;;5013958;28;20129;-37
2022/05/02 07:56:46;;;;;;;1.90;1.10;;;;;;;;;;5014020;28;20373;-37
2022/05/02 07:59:13;;;;;;;2.25;1.73;;;;;;;;;;5014271;28;20068;-37
2022/05/02 08:01:39;;;;;;;2.28;1.45;;;;;;;;;;5014021;28;20077;-37
2022/05/02 08:04:04;;;;;;;3.67;1.70;;;;;;;;;;5013774;28;20156;-36
2022/05/02 08:06:50;;;;;;;2.25;1.58;;;;;;;;;;5013955;28;20054;-37
2022/05/02 08:09:15;;;;;;;1.63;1.27;;;;;;;;;;5009745;28;20448;-37
2022/05/02 08:11:59;;;;;;;4.22;1.85;;;;;;;;;;5013788;28;20022;-37
2022/05/02 08:14:30;;;;;;;2.15;2.00;;;;;;;;;;5013630;28;20073;-37
2022/05/02 08:17:02;;;;;;;3.40;2.17;;;;;;;;;;5013675;28;20030;-38
2022/05/02 08:19:34;;;;;;;2.38;1.70;;;;;;;;;;5013670;28;20030;-37
2022/05/02 08:27:59;;;;;;;2.85;1.77;;;;;;;;;;5013417;28;20050;-38
2022/05/02 08:30:25;;;;;;;2.60;1.88;;;;;;;;;;5013419;28;20033;-38
2022/05/02 08:32:55;;;;;;;5.28;2.13;;;;;;;;;;5013230;28;20026;-38
2022/05/02 08:35:21;;;;;;;3.92;2.05;;;;;;;;;;5013267;28;20046;-37
2022/05/02 08:38:02;;;;;;;2.83;1.95;;;;;;;;;;5013224;28;20040;-37
2022/05/02 08:40:27;;;;;;;3.67;2.95;;;;;;;;;;5013489;28;20120;-37
2022/05/02 08:43:02;;;;;;;1.92;1.60;;;;;;;;;;5013488;28;20434;-37
2022/05/02 08:45:36;;;;;;;3.40;1.30;;;;;;;;;;5013130;28;20021;-37
2022/05/02 08:48:17;;;;;;;2.13;1.75;;;;;;;;;;5013061;28;20033;-37
2022/05/02 08:50:59;;;;;;;9.80;2.30;;;;;;;;;;5013313;28;20383;-37
2022/05/02 08:53:30;;;;;;;2.65;1.30;;;;;;;;;;5013176;28;20085;-37
2022/05/02 08:56:11;;;;;;;2.78;1.50;;;;;;;;;;5013270;28;20033;-37
2022/05/02 08:58:42;;;;;;;3.55;1.73;;;;;;;;;;5012966;28;20497;-37
2022/05/02 09:01:21;;;;;;;3.15;1.60;;;;;;;;;;5012680;28;20072;-37
2022/05/02 09:04:17;;;;;;;6.05;2.08;;;;;;;;;;5012771;28;20030;-37
2022/05/02 09:06:42;;;;;;;2.05;1.77;;;;;;;;;;5012738;28;20535;-37
2022/05/02 09:09:16;;;;;;;2.42;1.98;;;;;;;;;;5012933;28;20014;-37
2022/05/02 09:12:06;;;;;;;1.77;1.67;;;;;;;;;;5012731;28;20057;-38
2022/05/02 09:14:38;;;;;;;2.15;1.95;;;;;;;;;;5012544;28;20052;-37
2022/05/02 09:17:15;;;;;;;5.72;1.85;;;;;;;;;;5012722;28;20444;-37
2022/05/02 09:19:59;;;;;;;3.70;1.98;;;;;;;;;;5012539;28;20042;-37
2022/05/02 09:22:25;;;;;;;2.80;1.77;;;;;;;;;;5012375;28;20148;-37
2022/05/02 09:25:07;;;;;;;6.32;1.98;;;;;;;;;;5012472;28;20120;-37
2022/05/02 09:27:52;;;;;;;3.78;2.40;;;;;;;;;;5012268;28;20046;-37
2022/05/02 09:30:17;;;;;;;4.45;2.15;;;;;;;;;;5012565;28;20535;-37
2022/05/02 09:32:43;;;;;;;1.65;1.40;;;;;;;;;;5012527;28;20026;-37
2022/05/02 09:35:13;;;;;;;2.15;1.50;;;;;;;;;;5012511;28;20388;-37
2022/05/02 09:37:40;;;;;;;2.80;1.98;;;;;;;;;;5012240;28;20066;-37
2022/05/02 09:40:09;;;;;;;3.20;1.90;;;;;;;;;;5012119;28;20037;-37
2022/05/02 09:42:54;;;;;;;3.13;2.67;;;;;;;;;;5011987;28;20034;-37
2022/05/02 09:51:32;;;;;;;2.78;1.70;;;;;;;;;;5011960;28;20034;-37
2022/05/02 09:54:06;;;;;;;2.40;1.90;;;;;;;;;;5011885;28;20099;-37
2022/05/02 09:56:43;;;;;;;3.35;1.83;;;;;;;;;;5011880;28;20380;-37
2022/05/02 09:59:26;;;;;;;2.17;1.98;;;;;;;;;;5011924;28;20029;-37
2022/05/02 10:02:01;;;;;;;2.17;1.93;;;;;;;;;;5011966;28;20374;-37
2022/05/02 10:04:35;;;;;;;5.53;2.10;;;;;;;;;;5012096;28;20120;-37
2022/05/02 10:07:06;;;;;;;2.75;1.85;;;;;;;;;;5011749;28;20122;-37
2022/05/02 10:09:38;;;;;;;2.88;1.90;;;;;;;;;;5011836;28;20504;-38
2022/05/02 10:12:04;;;;;;;3.83;1.92;;;;;;;;;;5011431;28;20396;-37
2022/05/02 10:14:58;;;;;;;3.47;1.60;;;;;;;;;;5011649;28;20026;-37
2022/05/02 10:17:58;;;;;;;2.55;2.05;;;;;;;;;;4992156;28;20057;-38
2022/05/02 10:20:29;;;;;;;2.53;1.77;;;;;;;;;;4999973;28;20042;-37
2022/05/02 10:22:55;;;;;;;2.38;2.13;;;;;;;;;;5011648;28;20469;-37
2022/05/02 10:25:24;;;;;;;3.00;1.40;;;;;;;;;;5011450;28;20080;-37
2022/05/02 10:27:58;;;;;;;2.65;2.10;;;;;;;;;;5011496;28;20150;-37
2022/05/02 10:30:28;;;;;;;3.88;1.63;;;;;;;;;;5011501;28;20030;-37
2022/05/02 10:32:56;;;;;;;1.98;1.80;;;;;;;;;;5011472;28;20025;-37
2022/05/02 10:35:22;;;;;;;3.85;1.95;;;;;;;;;;5011637;28;20041;-37
2022/05/02 10:37:55;;;;;;;2.35;1.88;;;;;;;;;;5011539;28;20029;-37
2022/05/02 10:40:28;;;;;;;2.45;1.75;;;;;;;;;;5011682;28;20040;-37
2022/05/02 10:42:56;;;;;;;4.30;2.20;;;;;;;;;;5011665;28;20038;-37
2022/05/02 10:45:24;;;;;;;2.13;1.83;;;;;;;;;;5011387;28;20025;-37
2022/05/02 10:47:53;;;;;;;2.80;1.70;;;;;;;;;;5011392;28;20041;-37
2022/05/02 10:50:20;;;;;;;1.90;1.45;;;;;;;;;;5011396;28;20052;-37
2022/05/02 10:52:49;;;;;;;3.75;1.90;;;;;;;;;;5011484;28;20034;-37
2022/05/02 10:55:40;;;;;;;2.22;1.70;;;;;;;;;;5011296;28;20025;-37
2022/05/02 10:58:10;;;;;;;4.47;1.90;;;;;;;;;;5002770;28;20034;-37
2022/05/02 11:00:39;;;;;;;4.15;2.25;;;;;;;;;;5011552;28;20030;-38
2022/05/02 11:03:42;;;;;;;5.55;1.60;;;;;;;;;;5011219;28;20022;-37
2022/05/02 11:06:27;;;;;;;2.10;1.23;;;;;;;;;;4989214;28;20038;-38
2022/05/02 11:09:03;;;;;;;2.40;1.55;;;;;;;;;;5009725;28;20041;-37
2022/05/02 11:11:51;;;;;;;4.28;1.98;;;;;;;;;;5011258;28;20113;-37
2022/05/02 11:14:26;;;;;;;1.52;1.38;;;;;;;;;;5011012;28;20096;-38
2022/05/02 11:17:10;;;;;;;2.42;1.70;;;;;;;;;;5011202;28;20113;-37
2022/05/02 11:22:41;;;;;;;2.15;1.67;;;;;;;;;;5011452;28;20041;-37
2022/05/02 11:25:11;;;;;;;3.65;1.90;;;;;;;;;;5012748;28;20026;-37
2022/05/02 11:27:55;;;;;;;1.83;1.15;;;;;;;;;;5013252;28;20045;-37
2022/05/02 11:30:28;;;;;;;3.72;1.75;;;;;;;;;;5014433;28;20118;-37
2022/05/02 11:32:54;;;;;;;;;;;;;;;;;;5014894;28;20041;-37
2022/05/02 11:35:29;;;;;;;2.92;1.30;;;;;;;;;;5014385;28;19914;-37
2022/05/02 11:37:55;;;;;;;2.40;1.67;;;;;;;;;;5014444;28;20127;-37
2022/05/02 11:40:27;;;;;;;1.42;1.00;;;;;;;;;;5014293;28;20057;-37
2022/05/02 11:42:53;;;;;;;2.55;1.38;;;;;;;;;;5014297;28;20068;-37
2022/05/02 11:45:24;;;;;;;2.25;1.48;;;;;;;;;;5014490;28;20034;-37
2022/05/02 11:48:08;;;;;;;1.50;1.40;;;;;;;;;;5014323;28;20076;-37
2022/05/02 11:50:44;;;;;;;1.60;1.50;;;;;;;;;;5014135;28;20036;-37
2022/05/02 11:53:13;;;;;;;1.70;1.13;;;;;;;;;;5014064;28;20038;-38
2022/05/02 11:55:40;;;;;;;2.50;1.60;;;;;;;;;;5014157;28;20022;-37
2022/05/02 11:58:24;;;;;;;1.65;1.50;;;;;;;;;;5014238;28;20109;-38
2022/05/02 12:00:51;;;;;;;4.60;1.63;;;;;;;;;;5014050;28;20026;-37
2022/05/02 12:03:18;;;;;;;1.77;1.38;;;;;;;;;;5014172;28;20384;-37
2022/05/02 12:06:01;;;;;;;2.58;1.15;;;;;;;;;;5013796;28;20026;-37
2022/05/02 12:08:27;;;;;;;;;;;;;;;;;;5014224;28;20022;-37
2022/05/02 12:11:05;;;;;;;1.38;1.05;;;;;;;;;;5012559;28;20333;-37
2022/05/02 12:13:32;;;;;;;2.45;1.45;;;;;;;;;;5013672;28;20042;-38
2022/05/02 12:16:08;;;;;;;5.07;1.70;;;;;;;;;;5012402;28;20503;-38
2022/05/02 12:18:52;;;;;;;1.60;1.27;;;;;;;;;;5013626;28;20036;-37
2022/05/02 12:21:24;;;;;;;1.92;1.70;;;;;;;;;;5013584;28;20026;-37
2022/05/02 12:23:53;;;;;;;1.80;1.52;;;;;;;;;;5013581;28;20040;-38
2022/05/02 12:26:20;;;;;;;2.45;1.20;;;;;;;;;;5013220;28;20041;-37
2022/05/02 12:28:48;;;;;;;1.48;1.15;;;;;;;;;;5013600;28;20052;-37
2022/05/02 12:31:36;;;;;;;3.83;1.35;;;;;;;;;;5013306;28;20420;-37
2022/05/02 12:34:05;;;;;;;6.95;1.42;;;;;;;;;;5013304;28;20085;-37
2022/05/02 12:36:47;;;;;;;2.35;1.08;;;;;;;;;;5013330;28;20050;-37
2022/05/02 12:39:32;;;;;;;1.85;1.65;;;;;;;;;;5013210;28;20416;-37
2022/05/02 12:42:07;;;;;;;2.30;1.58;;;;;;;;;;5012880;28;20041;-37
2022/05/02 12:44:43;;;;;;;2.35;1.90;;;;;;;;;;5013447;28;20049;-37
2022/05/02 12:47:14;;;;;;;2.13;1.50;;;;;;;;;;5013318;28;20033;-37
2022/05/02 12:49:53;;;;;;;1.50;1.40;;;;;;;;;;5013078;28;20129;-37
2022/05/02 12:52:20;;;;;;;3.25;1.40;;;;;;;;;;5013266;28;20048;-37
2022/05/02 12:54:49;;;;;;;1.70;1.48;;;;;;;;;;5012909;28;20046;-37
2022/05/02 13:02:43;;;;;;;2.10;1.40;;;;;;;;;;5012784;28;20393;-37
2022/05/02 13:05:13;;;;;;;4.72;2.67;;;;;;;;;;5012770;28;20032;-37
2022/05/02 13:07:46;;;;;;;1.70;1.13;;;;;;;;;;5012799;28;20125;-37
2022/05/02 13:10:12;;;;;;;;;;;;;;;;;;5013086;28;20496;-37
2022/05/02 13:12:37;;;;;;;3.28;1.80;;;;;;;;;;5012673;28;19905;-37
2022/05/02 13:15:04;;;;;;;1.42;1.27;;;;;;;;;;5012572;28;20044;-37
2022/05/02 13:17:29;;;;;;;2.15;1.70;;;;;;;;;;5012552;28;20460;-37
2022/05/02 13:19:55;;;;;;;1.30;1.20;;;;;;;;;;5012595;28;20104;-38
2022/05/02 13:22:21;;;;;;;1.52;1.23;;;;;;;;;;5012456;28;20021;-37
2022/05/02 13:24:53;;;;;;;2.30;1.33;;;;;;;;;;5012495;28;20036;-36
2022/05/02 13:27:33;;;;;;;1.20;1.10;;;;;;;;;;5012142;28;20622;-37
2022/05/02 13:30:03;;;;;;;2.63;1.38;;;;;;;;;;5012665;28;20112;-37
2022/05/02 13:32:34;;;;;;;5.07;1.70;;;;;;;;;;5012211;28;20032;-37
2022/05/02 13:35:06;;;;;;;1.52;1.13;;;;;;;;;;5012262;28;20042;-37
2022/05/02 13:37:32;;;;;;;2.97;1.25;;;;;;;;;;5012271;28;20026;-37
2022/05/02 13:40:04;;;;;;;1.63;1.35;;;;;;;;;;5012294;28;20021;-37
2022/05/02 13:42:42;;;;;;;1.30;1.10;;;;;;;;;;5012060;28;20473;-36
2022/05/02 13:45:10;;;;;;;5.47;1.67;;;;;;;;;;5012027;28;20029;-37
2022/05/02 13:47:47;;;;;;;3.90;2.10;;;;;;;;;;5010161;28;20374;-37
2022/05/02 13:50:14;;;;;;;2.17;1.45;;;;;;;;;;5011983;28;20626;-37
2022/05/02 13:53:01;;;;;;;1.20;1.10;;;;;;;;;;5011918;28;20025;-37
2022/05/02 13:55:29;;;;;;;1.25;1.00;;;;;;;;;;5012182;28;20469;-37
2022/05/02 13:58:09;;;;;;;2.67;1.60;;;;;;;;;;5011936;28;20022;-37
2022/05/02 14:03:21;;;;;;;1.98;1.20;;;;;;;;;;5011819;28;20047;-37
2022/05/02 14:08:19;;;;;;;1.40;1.10;;;;;;;;;;5011758;28;20021;-37
2022/05/02 14:10:57;;;;;;;6.75;1.48;;;;;;;;;;5011836;28;20021;-37
2022/05/02 14:13:23;;;;;;;2.58;1.10;;;;;;;;;;5011474;28;20575;-37
2022/05/02 14:15:49;;;;;;;6.97;1.35;;;;;;;;;;5011814;28;20072;-37
2022/05/02 14:18:19;;;;;;;2.88;1.30;;;;;;;;;;5011644;28;20034;-37
2022/05/02 14:20:45;;;;;;;1.40;1.30;;;;;;;;;;5011697;28;20018;-37
2022/05/02 14:23:12;;;;;;;1.75;1.52;;;;;;;;;;5011543;28;20559;-37
2022/05/02 14:25:44;;;;;;;2.75;1.17;;;;;;;;;;5011718;28;20109;-37
2022/05/02 14:28:11;;;;;;;1.40;1.30;;;;;;;;;;5011296;28;20080;-37
2022/05/02 14:30:41;;;;;;;2.38;1.60;;;;;;;;;;5011682;28;20061;-37
2022/05/02 14:33:39;;;;;;;4.53;1.83;;;;;;;;;;5011395;28;20038;-37
2022/05/02 14:36:08;;;;;;;1.40;1.30;;;;;;;;;;5002430;28;20046;-37
2022/05/02 14:38:37;;;;;;;1.77;1.45;;;;;;;;;;5011757;28;20117;-37
2022/05/02 14:41:03;;;;;;;1.67;1.30;;;;;;;;;;5011463;28;20030;-37
2022/05/02 14:43:28;;;;;;;2.15;1.42;;;;;;;;;;5011613;28;20037;-37
2022/05/02 14:45:54;;;;;;;2.88;1.60;;;;;;;;;;5011559;28;20018;-37
2022/05/02 14:48:21;;;;;;;1.77;1.45;;;;;;;;;;5011349;28;20029;-37
2022/05/02 14:50:48;;;;;;;1.60;1.40;;;;;;;;;;5011207;28;20057;-37
2022/05/02 14:53:17;;;;;;;16.45;2.45;;;;;;;;;;5011190;28;20029;-37
2022/05/02 14:55:49;;;;;;;2.70;1.30;;;;;;;;;;5011574;28;20385;-37
2022/05/02 14:58:19;;;;;;;1.52;1.42;;;;;;;;;;5011469;28;20109;-37
2022/05/02 15:01:07;;;;;;;3.08;1.52;;;;;;;;;;5013846;28;20026;-37
2022/05/02 15:03:33;;;;;;;3.13;1.60;;;;;;;;;;5030235;28;20868;-37
2022/05/02 15:06:07;;;;;;;1.88;1.40;;;;;;;;;;5015338;28;20424;-37
2022/05/02 15:08:50;;;;;;;2.53;1.92;;;;;;;;;;5015078;28;20030;-37
2022/05/02 15:11:16;;;;;;;;;;;;;;;;;;5015355;28;20022;-37
2022/05/02 15:14:24;;;;;;;1.83;1.10;;;;;;;;;;5014822;28;19913;-37
2022/05/02 15:16:50;;;;;;;2.30;1.75;;;;;;;;;;4992873;28;20113;-37
2022/05/02 15:19:34;;;;;;;1.67;1.35;;;;;;;;;;4992586;28;20426;-37
2022/05/02 15:22:08;;;;;;;2.00;1.40;;;;;;;;;;5006322;28;20117;-36
2022/05/02 15:24:49;;;;;;;2.90;1.63;;;;;;;;;;5014678;28;20390;-36
2022/05/02 15:36:38;;;;;;;3.15;1.58;;;;;;;;;;5014443;28;20646;-37
2022/05/02 15:38:49;;;;;;;2.05;1.77;;;;;;;;;;5014405;28;20087;-37
2022/05/02 15:41:16;;;;;;;3.90;1.25;;;;;;;;;;5014330;28;20053;-37
2022/05/02 15:43:51;;;;;;;2.47;1.70;;;;;;;;;;5014243;28;20033;-37
2022/05/02 15:46:17;;;;;;;1.20;1.10;;;;;;;;;;5014445;28;20052;-37
2022/05/02 15:48:42;;;;;;;2.50;1.58;;;;;;;;;;5014519;28;20354;-37
2022/05/02 15:51:14;;;;;;;5.20;1.40;;;;;;;;;;5014114;28;20056;-37